Iberville, Canada
Current Conditions -  °F | °C
As of 9:00 PM on Monday 20 Oct 2014 (Local Time) from CYHU Reporting Station
Light Rain Light Rain  
Wind Chill: 41°   Ceiling: 6000
Heat Index: 41°   Visibility: 9mi
Dew Point: 36°   Wind: 3mph
Humidity: 81%   Direction: 110°ESE
Pressure: 29.96"   Gusts: NA
Location:  45.32°N, 73.23°W
Report Text: CYHU 210100Z AUTO 11003KT 9SM -RA OVC060 05/02 A2996 RMK SLP145
Loading
Personal Weather Stations






























Interactive Weather Map New forecast layout! Learn more

10-Day Weather Forecast

Advertisements
Track Severe Weather on mobile